AUA27 EDDF-LOWW
Flight info
| Callsign | AUA27 |
|---|---|
| Flight time | 1h 5m |
| Altitude | 31000 |
| Route | SULUS7S/18 SULUS Z650 VEMUT/N0443F350 DCT ETVIS DCT BUDWA DCT BUDEX BUDEX2W |
| Aircraft | A20N/M-SDE2E3FGHIRWXY/LB1 |
Departure
| Time | 2026-04-18 09:19 |
|---|---|
| Airport | Frankfurt Main Airport (EDDF) |
Arrival
| Time | 2026-04-18 10:24 |
|---|---|
| Airport | Vienna International Airport (LOWW) |
| Time | Latitude | Longitude | Altitude | Speed | Heading |
|---|---|---|---|---|---|
| 2026-04-18 09:00 | 50.04423 | 8.56276 | 345 ft | 0 kts | 164° |
| 2026-04-18 09:09 | 50.04439 | 8.56269 | 357 ft | 3 kts | 164° |
| 2026-04-18 09:09 | 50.04458 | 8.56262 | 354 ft | 2 kts | 151° |
| 2026-04-18 09:09 | 50.04473 | 8.56251 | 355 ft | 2 kts | 189° |
| 2026-04-18 09:09 | 50.04488 | 8.56261 | 353 ft | 3 kts | 248° |
| 2026-04-18 09:10 | 50.04486 | 8.56253 | 356 ft | 0 kts | 248° |
| 2026-04-18 09:11 | 50.04483 | 8.56242 | 352 ft | 4 kts | 246° |
| 2026-04-18 09:11 | 50.04465 | 8.56171 | 353 ft | 10 kts | 248° |
| 2026-04-18 09:11 | 50.04430 | 8.56061 | 354 ft | 12 kts | 224° |
| 2026-04-18 09:12 | 50.04353 | 8.56058 | 352 ft | 13 kts | 164° |
| 2026-04-18 09:12 | 50.04268 | 8.56042 | 355 ft | 14 kts | 230° |
| 2026-04-18 09:12 | 50.04227 | 8.55891 | 348 ft | 16 kts | 250° |
| 2026-04-18 09:12 | 50.04189 | 8.55713 | 348 ft | 18 kts | 244° |
| 2026-04-18 09:13 | 50.04139 | 8.55522 | 351 ft | 20 kts | 250° |
| 2026-04-18 09:13 | 50.04087 | 8.55307 | 348 ft | 22 kts | 249° |
| 2026-04-18 09:13 | 50.04031 | 8.55074 | 348 ft | 23 kts | 250° |
| 2026-04-18 09:13 | 50.03978 | 8.54845 | 353 ft | 20 kts | 250° |
| 2026-04-18 09:14 | 50.03925 | 8.54629 | 350 ft | 22 kts | 251° |
| 2026-04-18 09:14 | 50.03872 | 8.54406 | 349 ft | 17 kts | 246° |
| 2026-04-18 09:14 | 50.03822 | 8.54284 | 350 ft | 13 kts | 241° |
| 2026-04-18 09:14 | 50.03780 | 8.54143 | 351 ft | 16 kts | 250° |
| 2026-04-18 09:15 | 50.03739 | 8.53970 | 345 ft | 18 kts | 249° |
| 2026-04-18 09:15 | 50.03708 | 8.53842 | 351 ft | 20 kts | 250° |
| 2026-04-18 09:15 | 50.03636 | 8.53553 | 345 ft | 23 kts | 249° |
| 2026-04-18 09:15 | 50.03581 | 8.53317 | 347 ft | 24 kts | 250° |
| 2026-04-18 09:16 | 50.03518 | 8.53061 | 353 ft | 26 kts | 250° |
| 2026-04-18 09:16 | 50.03461 | 8.52839 | 349 ft | 18 kts | 248° |
| 2026-04-18 09:16 | 50.03413 | 8.52657 | 352 ft | 16 kts | 240° |
| 2026-04-18 09:16 | 50.03355 | 8.52595 | 345 ft | 4 kts | 182° |
| 2026-04-18 09:17 | 50.03354 | 8.52595 | 345 ft | 0 kts | 183° |
| 2026-04-18 09:18 | 50.03306 | 8.52592 | 345 ft | 30 kts | 180° |
| 2026-04-18 09:18 | 50.02859 | 8.52600 | 350 ft | 98 kts | 179° |
| 2026-04-18 09:18 | 50.01989 | 8.52607 | 345 ft | 150 kts | 180° |
| 2026-04-18 09:18 | 50.00832 | 8.52616 | 568 ft | 173 kts | 180° |
| 2026-04-18 09:19 | 49.99595 | 8.52625 | 1043 ft | 181 kts | 180° |
| 2026-04-18 09:19 | 49.98338 | 8.52637 | 1764 ft | 180 kts | 180° |
| 2026-04-18 09:19 | 49.97106 | 8.53001 | 2314 ft | 188 kts | 156° |
| 2026-04-18 09:19 | 49.96037 | 8.54285 | 2627 ft | 206 kts | 127° |
| 2026-04-18 09:20 | 49.95290 | 8.56295 | 2953 ft | 225 kts | 118° |
| 2026-04-18 09:20 | 49.94531 | 8.58529 | 3486 ft | 240 kts | 113° |
| 2026-04-18 09:20 | 49.94259 | 8.61129 | 4220 ft | 254 kts | 87° |
| 2026-04-18 09:20 | 49.94425 | 8.63939 | 4846 ft | 273 kts | 83° |
| 2026-04-18 09:21 | 49.94674 | 8.66882 | 5841 ft | 276 kts | 83° |
| 2026-04-18 09:21 | 49.94928 | 8.69846 | 6850 ft | 279 kts | 84° |
| 2026-04-18 09:21 | 49.95169 | 8.72850 | 7796 ft | 283 kts | 84° |
| 2026-04-18 09:21 | 49.95397 | 8.75903 | 8746 ft | 287 kts | 84° |
| 2026-04-18 09:22 | 49.95618 | 8.79005 | 9691 ft | 291 kts | 84° |
| 2026-04-18 09:22 | 49.95836 | 8.82157 | 10540 ft | 299 kts | 84° |
| 2026-04-18 09:22 | 49.96066 | 8.85504 | 10893 ft | 324 kts | 84° |
| 2026-04-18 09:22 | 49.96312 | 8.89104 | 11222 ft | 346 kts | 84° |
| 2026-04-18 09:23 | 49.96570 | 8.92867 | 11923 ft | 354 kts | 84° |
| 2026-04-18 09:23 | 49.96828 | 8.96654 | 12703 ft | 360 kts | 83° |
| 2026-04-18 09:23 | 49.97093 | 9.00554 | 13483 ft | 367 kts | 83° |
| 2026-04-18 09:23 | 49.97362 | 9.04535 | 14221 ft | 373 kts | 83° |
| 2026-04-18 09:24 | 49.97634 | 9.08568 | 14952 ft | 377 kts | 83° |
| 2026-04-18 09:24 | 49.97903 | 9.12593 | 15682 ft | 382 kts | 83° |
| 2026-04-18 09:24 | 49.98177 | 9.16710 | 16452 ft | 385 kts | 83° |
| 2026-04-18 09:24 | 49.98454 | 9.20874 | 17144 ft | 390 kts | 83° |
| 2026-04-18 09:25 | 49.98733 | 9.25086 | 17838 ft | 395 kts | 83° |
| 2026-04-18 09:25 | 49.99013 | 9.29358 | 18516 ft | 399 kts | 83° |
| 2026-04-18 09:25 | 49.99292 | 9.33610 | 19136 ft | 403 kts | 83° |
| 2026-04-18 09:25 | 49.99574 | 9.37954 | 19771 ft | 406 kts | 83° |
| 2026-04-18 09:26 | 49.99857 | 9.42332 | 20390 ft | 409 kts | 83° |
| 2026-04-18 09:26 | 50.00141 | 9.46752 | 21023 ft | 413 kts | 83° |
| 2026-04-18 09:26 | 50.00426 | 9.51208 | 21635 ft | 416 kts | 83° |
| 2026-04-18 09:26 | 50.00712 | 9.55703 | 22220 ft | 420 kts | 83° |
| 2026-04-18 09:27 | 50.00997 | 9.60233 | 22849 ft | 423 kts | 84° |
| 2026-04-18 09:27 | 50.01282 | 9.64799 | 23462 ft | 426 kts | 83° |
| 2026-04-18 09:27 | 50.01565 | 9.69338 | 24001 ft | 429 kts | 83° |
| 2026-04-18 09:27 | 50.01853 | 9.73976 | 24484 ft | 432 kts | 84° |
| 2026-04-18 09:28 | 50.02140 | 9.78646 | 24968 ft | 436 kts | 84° |
| 2026-04-18 09:28 | 50.02428 | 9.83356 | 25423 ft | 439 kts | 84° |
| 2026-04-18 09:28 | 50.02715 | 9.88104 | 25877 ft | 443 kts | 84° |
| 2026-04-18 09:28 | 50.03003 | 9.92882 | 26342 ft | 446 kts | 84° |
| 2026-04-18 09:29 | 50.03292 | 9.97704 | 26768 ft | 449 kts | 84° |
| 2026-04-18 09:29 | 50.03580 | 10.02555 | 27170 ft | 453 kts | 84° |
| 2026-04-18 09:29 | 50.03864 | 10.07377 | 27592 ft | 455 kts | 84° |
| 2026-04-18 09:29 | 50.04152 | 10.12302 | 28018 ft | 458 kts | 84° |
| 2026-04-18 09:30 | 50.04440 | 10.17251 | 28403 ft | 461 kts | 84° |
| 2026-04-18 09:30 | 50.04727 | 10.22228 | 28776 ft | 464 kts | 84° |
| 2026-04-18 09:30 | 50.05014 | 10.27248 | 29145 ft | 467 kts | 84° |
| 2026-04-18 09:30 | 50.05300 | 10.32275 | 29504 ft | 470 kts | 84° |
| 2026-04-18 09:31 | 50.05530 | 10.36361 | 29788 ft | 472 kts | 84° |
| 2026-04-18 09:31 | 50.05808 | 10.41319 | 30136 ft | 475 kts | 84° |
| 2026-04-18 09:31 | 50.06093 | 10.46451 | 30451 ft | 477 kts | 85° |
| 2026-04-18 09:31 | 50.06373 | 10.51533 | 30790 ft | 479 kts | 85° |
| 2026-04-18 09:32 | 50.06622 | 10.56096 | 31011 ft | 481 kts | 85° |
| 2026-04-18 09:32 | 50.06891 | 10.61039 | 31101 ft | 482 kts | 85° |
| 2026-04-18 09:32 | 50.07123 | 10.71434 | 31173 ft | 481 kts | 95° |
| 2026-04-18 09:33 | 50.05701 | 10.81565 | 31178 ft | 480 kts | 109° |
| 2026-04-18 09:33 | 50.04641 | 10.86515 | 31402 ft | 483 kts | 109° |
| 2026-04-18 09:33 | 50.03595 | 10.91466 | 31856 ft | 481 kts | 109° |
| 2026-04-18 09:34 | 50.02566 | 10.96340 | 32292 ft | 480 kts | 109° |
| 2026-04-18 09:34 | 50.01525 | 11.01262 | 32699 ft | 479 kts | 109° |
| 2026-04-18 09:34 | 50.00477 | 11.06192 | 33056 ft | 480 kts | 109° |
| 2026-04-18 09:34 | 49.99430 | 11.11106 | 33454 ft | 479 kts | 109° |
| 2026-04-18 09:35 | 49.98381 | 11.16013 | 33853 ft | 478 kts | 109° |
| 2026-04-18 09:35 | 49.97331 | 11.20913 | 34061 ft | 477 kts | 109° |
| 2026-04-18 09:35 | 49.95255 | 11.30644 | 34178 ft | 475 kts | 109° |
| 2026-04-18 09:36 | 49.93202 | 11.40328 | 34177 ft | 475 kts | 109° |
| 2026-04-18 09:36 | 49.91299 | 11.50147 | 34176 ft | 475 kts | 108° |
| 2026-04-18 09:37 | 49.88638 | 11.59489 | 34183 ft | 474 kts | 117° |
| 2026-04-18 09:37 | 49.85721 | 11.68649 | 34187 ft | 474 kts | 117° |
| 2026-04-18 09:38 | 49.82761 | 11.77776 | 34186 ft | 474 kts | 118° |
| 2026-04-18 09:38 | 49.79803 | 11.86819 | 34178 ft | 474 kts | 118° |
| 2026-04-18 09:39 | 49.76816 | 11.95910 | 34178 ft | 474 kts | 118° |
| 2026-04-18 09:39 | 49.73818 | 12.05003 | 34183 ft | 475 kts | 118° |
| 2026-04-18 09:40 | 49.70810 | 12.14096 | 34187 ft | 475 kts | 118° |
| 2026-04-18 09:40 | 49.67816 | 12.23112 | 34196 ft | 475 kts | 118° |
| 2026-04-18 09:41 | 49.64794 | 12.32178 | 34192 ft | 475 kts | 118° |
| 2026-04-18 09:41 | 49.61763 | 12.41238 | 34196 ft | 475 kts | 118° |
| 2026-04-18 09:42 | 49.58726 | 12.50288 | 34196 ft | 475 kts | 118° |
| 2026-04-18 09:42 | 49.55683 | 12.59322 | 34198 ft | 475 kts | 118° |
| 2026-04-18 09:43 | 49.52649 | 12.68296 | 34188 ft | 476 kts | 118° |
| 2026-04-18 09:43 | 49.49582 | 12.77337 | 34191 ft | 477 kts | 118° |
| 2026-04-18 09:44 | 49.46509 | 12.86364 | 34202 ft | 477 kts | 118° |
| 2026-04-18 09:44 | 49.43424 | 12.95394 | 34207 ft | 477 kts | 118° |
| 2026-04-18 09:45 | 49.40335 | 13.04406 | 34205 ft | 477 kts | 118° |
| 2026-04-18 09:45 | 49.37258 | 13.13357 | 34207 ft | 477 kts | 118° |
| 2026-04-18 09:46 | 49.34153 | 13.22352 | 34203 ft | 477 kts | 118° |
| 2026-04-18 09:46 | 49.31042 | 13.31332 | 34200 ft | 477 kts | 118° |
| 2026-04-18 09:47 | 49.29482 | 13.35819 | 34087 ft | 477 kts | 118° |
| 2026-04-18 09:47 | 49.28451 | 13.38785 | 33901 ft | 476 kts | 118° |
| 2026-04-18 09:47 | 49.26891 | 13.43261 | 33638 ft | 477 kts | 118° |
| 2026-04-18 09:47 | 49.24808 | 13.49223 | 33283 ft | 482 kts | 118° |
| 2026-04-18 09:48 | 49.23227 | 13.53741 | 33015 ft | 481 kts | 118° |
| 2026-04-18 09:48 | 49.21645 | 13.58258 | 32749 ft | 481 kts | 118° |
| 2026-04-18 09:48 | 49.20061 | 13.62769 | 32486 ft | 482 kts | 118° |
| 2026-04-18 09:48 | 49.18472 | 13.67288 | 32229 ft | 483 kts | 118° |
| 2026-04-18 09:49 | 49.16878 | 13.71814 | 31973 ft | 484 kts | 118° |
| 2026-04-18 09:49 | 49.15818 | 13.74818 | 31802 ft | 485 kts | 118° |
| 2026-04-18 09:49 | 49.13697 | 13.80819 | 31431 ft | 485 kts | 118° |
| 2026-04-18 09:49 | 49.12090 | 13.85352 | 31010 ft | 485 kts | 118° |
| 2026-04-18 09:50 | 49.10481 | 13.89885 | 30574 ft | 485 kts | 118° |
| 2026-04-18 09:50 | 49.08879 | 13.94392 | 30121 ft | 482 kts | 118° |
| 2026-04-18 09:50 | 49.07286 | 13.98865 | 29617 ft | 478 kts | 118° |
| 2026-04-18 09:50 | 49.06240 | 14.01799 | 29294 ft | 474 kts | 118° |
| 2026-04-18 09:51 | 49.04670 | 14.06196 | 28774 ft | 469 kts | 118° |
| 2026-04-18 09:51 | 49.03116 | 14.10542 | 28302 ft | 465 kts | 118° |
| 2026-04-18 09:51 | 49.01572 | 14.14852 | 27825 ft | 462 kts | 118° |
| 2026-04-18 09:51 | 48.99544 | 14.20502 | 27214 ft | 457 kts | 118° |
| 2026-04-18 09:52 | 48.98021 | 14.24733 | 26753 ft | 453 kts | 117° |
| 2026-04-18 09:52 | 48.96513 | 14.28921 | 26301 ft | 450 kts | 117° |
| 2026-04-18 09:52 | 48.95511 | 14.31670 | 26008 ft | 447 kts | 119° |
| 2026-04-18 09:52 | 48.93816 | 14.35618 | 25561 ft | 445 kts | 126° |
| 2026-04-18 09:53 | 48.91930 | 14.39331 | 25138 ft | 442 kts | 127° |
| 2026-04-18 09:53 | 48.90064 | 14.43018 | 24711 ft | 439 kts | 126° |
| 2026-04-18 09:53 | 48.88216 | 14.46685 | 24290 ft | 435 kts | 126° |
| 2026-04-18 09:53 | 48.85791 | 14.51491 | 23739 ft | 431 kts | 126° |
| 2026-04-18 09:54 | 48.83972 | 14.55087 | 23246 ft | 428 kts | 126° |
| 2026-04-18 09:54 | 48.82751 | 14.57497 | 22932 ft | 425 kts | 126° |
| 2026-04-18 09:54 | 48.80951 | 14.61043 | 22428 ft | 422 kts | 126° |
| 2026-04-18 09:54 | 48.79189 | 14.64510 | 21973 ft | 420 kts | 126° |
| 2026-04-18 09:55 | 48.77413 | 14.68000 | 21505 ft | 417 kts | 126° |
| 2026-04-18 09:55 | 48.75649 | 14.71463 | 21046 ft | 413 kts | 126° |
| 2026-04-18 09:55 | 48.73896 | 14.74899 | 20595 ft | 411 kts | 126° |
| 2026-04-18 09:55 | 48.72154 | 14.78308 | 20150 ft | 408 kts | 126° |
| 2026-04-18 09:56 | 48.70424 | 14.81689 | 19713 ft | 405 kts | 126° |
| 2026-04-18 09:56 | 48.68701 | 14.85047 | 19270 ft | 402 kts | 126° |
| 2026-04-18 09:56 | 48.66992 | 14.88377 | 18852 ft | 400 kts | 126° |
| 2026-04-18 09:56 | 48.65292 | 14.91684 | 18419 ft | 397 kts | 126° |
| 2026-04-18 09:57 | 48.63625 | 14.94922 | 17954 ft | 393 kts | 126° |
| 2026-04-18 09:57 | 48.61956 | 14.98161 | 17473 ft | 388 kts | 126° |
| 2026-04-18 09:57 | 48.60331 | 15.01374 | 17003 ft | 383 kts | 123° |
| 2026-04-18 09:57 | 48.59011 | 15.04850 | 16547 ft | 380 kts | 112° |
| 2026-04-18 09:58 | 48.58110 | 15.08552 | 16090 ft | 373 kts | 103° |
| 2026-04-18 09:58 | 48.57477 | 15.12320 | 15642 ft | 369 kts | 102° |
| 2026-04-18 09:58 | 48.56843 | 15.16068 | 15196 ft | 367 kts | 102° |
| 2026-04-18 09:58 | 48.56206 | 15.19780 | 14763 ft | 363 kts | 102° |
| 2026-04-18 09:59 | 48.55580 | 15.23406 | 14342 ft | 361 kts | 103° |
| 2026-04-18 09:59 | 48.54948 | 15.27057 | 13909 ft | 358 kts | 103° |
| 2026-04-18 09:59 | 48.54320 | 15.30674 | 13482 ft | 354 kts | 103° |
| 2026-04-18 10:00 | 48.53069 | 15.37861 | 13121 ft | 356 kts | 102° |
| 2026-04-18 10:00 | 48.52442 | 15.41458 | 12860 ft | 353 kts | 103° |
| 2026-04-18 10:00 | 48.51948 | 15.45056 | 12608 ft | 349 kts | 95° |
| 2026-04-18 10:00 | 48.51742 | 15.48683 | 12500 ft | 347 kts | 92° |
| 2026-04-18 10:01 | 48.51551 | 15.52268 | 12410 ft | 348 kts | 92° |
| 2026-04-18 10:01 | 48.51349 | 15.55905 | 12218 ft | 348 kts | 92° |
| 2026-04-18 10:01 | 48.51145 | 15.59529 | 11971 ft | 345 kts | 93° |
| 2026-04-18 10:01 | 48.50940 | 15.63122 | 11720 ft | 343 kts | 93° |
| 2026-04-18 10:02 | 48.50734 | 15.66699 | 11469 ft | 342 kts | 93° |
| 2026-04-18 10:02 | 48.50529 | 15.70222 | 11220 ft | 333 kts | 93° |
| 2026-04-18 10:02 | 48.50328 | 15.73647 | 10968 ft | 323 kts | 93° |
| 2026-04-18 10:02 | 48.50132 | 15.76973 | 10739 ft | 314 kts | 93° |
| 2026-04-18 10:03 | 48.49940 | 15.80209 | 10493 ft | 305 kts | 93° |
| 2026-04-18 10:03 | 48.49753 | 15.83355 | 10258 ft | 297 kts | 93° |
| 2026-04-18 10:03 | 48.49572 | 15.86422 | 10001 ft | 290 kts | 93° |
| 2026-04-18 10:03 | 48.49396 | 15.89381 | 9733 ft | 288 kts | 93° |
| 2026-04-18 10:04 | 48.49092 | 15.92375 | 9474 ft | 290 kts | 106° |
| 2026-04-18 10:04 | 48.48324 | 15.95183 | 9213 ft | 290 kts | 111° |
| 2026-04-18 10:04 | 48.47515 | 15.97967 | 8949 ft | 289 kts | 112° |
| 2026-04-18 10:04 | 48.46697 | 16.00722 | 8692 ft | 288 kts | 112° |
| 2026-04-18 10:05 | 48.45870 | 16.03465 | 8433 ft | 286 kts | 112° |
| 2026-04-18 10:05 | 48.45041 | 16.06192 | 8184 ft | 287 kts | 112° |
| 2026-04-18 10:05 | 48.44211 | 16.08916 | 7930 ft | 286 kts | 112° |
| 2026-04-18 10:05 | 48.43394 | 16.11589 | 7682 ft | 285 kts | 112° |
| 2026-04-18 10:06 | 48.42572 | 16.14285 | 7437 ft | 282 kts | 112° |
| 2026-04-18 10:06 | 48.41752 | 16.16963 | 7193 ft | 281 kts | 112° |
| 2026-04-18 10:06 | 48.40935 | 16.19631 | 6951 ft | 281 kts | 112° |
| 2026-04-18 10:06 | 48.40120 | 16.22293 | 6705 ft | 279 kts | 112° |
| 2026-04-18 10:07 | 48.39309 | 16.24941 | 6455 ft | 279 kts | 112° |
| 2026-04-18 10:07 | 48.38493 | 16.27591 | 6190 ft | 279 kts | 112° |
| 2026-04-18 10:07 | 48.37678 | 16.30229 | 6048 ft | 278 kts | 112° |
| 2026-04-18 10:07 | 48.36877 | 16.32827 | 6007 ft | 277 kts | 112° |
| 2026-04-18 10:08 | 48.36067 | 16.35461 | 6002 ft | 278 kts | 112° |
| 2026-04-18 10:08 | 48.35253 | 16.38105 | 6004 ft | 279 kts | 112° |
| 2026-04-18 10:08 | 48.34440 | 16.40743 | 6000 ft | 278 kts | 112° |
| 2026-04-18 10:08 | 48.33612 | 16.43371 | 6006 ft | 279 kts | 117° |
| 2026-04-18 10:09 | 48.32364 | 16.45615 | 6004 ft | 283 kts | 138° |
| 2026-04-18 10:09 | 48.30852 | 16.47511 | 6000 ft | 283 kts | 139° |
| 2026-04-18 10:09 | 48.29323 | 16.49372 | 6000 ft | 283 kts | 140° |
| 2026-04-18 10:09 | 48.27785 | 16.51218 | 6009 ft | 283 kts | 140° |
| 2026-04-18 10:10 | 48.26241 | 16.53058 | 5998 ft | 283 kts | 140° |
| 2026-04-18 10:10 | 48.24719 | 16.54871 | 5997 ft | 283 kts | 140° |
| 2026-04-18 10:10 | 48.23175 | 16.56710 | 5998 ft | 283 kts | 140° |
| 2026-04-18 10:10 | 48.21630 | 16.58550 | 5997 ft | 283 kts | 140° |
| 2026-04-18 10:11 | 48.20086 | 16.60387 | 6000 ft | 283 kts | 140° |
| 2026-04-18 10:11 | 48.18543 | 16.62222 | 5997 ft | 283 kts | 140° |
| 2026-04-18 10:11 | 48.16997 | 16.64059 | 5997 ft | 284 kts | 140° |
| 2026-04-18 10:11 | 48.15452 | 16.65893 | 5998 ft | 284 kts | 140° |
| 2026-04-18 10:12 | 48.13905 | 16.67729 | 5996 ft | 284 kts | 140° |
| 2026-04-18 10:12 | 48.12358 | 16.69562 | 5997 ft | 284 kts | 140° |
| 2026-04-18 10:12 | 48.10701 | 16.71100 | 5997 ft | 286 kts | 154° |
| 2026-04-18 10:12 | 48.08824 | 16.72069 | 5997 ft | 286 kts | 164° |
| 2026-04-18 10:13 | 48.06898 | 16.72845 | 5998 ft | 287 kts | 164° |
| 2026-04-18 10:13 | 48.04975 | 16.73634 | 5997 ft | 287 kts | 163° |
| 2026-04-18 10:13 | 48.03087 | 16.74416 | 5994 ft | 275 kts | 163° |
| 2026-04-18 10:13 | 48.01297 | 16.75158 | 5998 ft | 259 kts | 163° |
| 2026-04-18 10:14 | 47.99592 | 16.75867 | 5993 ft | 255 kts | 163° |
| 2026-04-18 10:14 | 47.97899 | 16.76572 | 5957 ft | 256 kts | 163° |
| 2026-04-18 10:14 | 47.96178 | 16.77287 | 5662 ft | 258 kts | 163° |
| 2026-04-18 10:14 | 47.94443 | 16.78008 | 5229 ft | 259 kts | 163° |
| 2026-04-18 10:15 | 47.92701 | 16.78728 | 4788 ft | 260 kts | 164° |
| 2026-04-18 10:15 | 47.90951 | 16.79431 | 4381 ft | 260 kts | 164° |
| 2026-04-18 10:15 | 47.89221 | 16.80117 | 4136 ft | 252 kts | 164° |
| 2026-04-18 10:15 | 47.87566 | 16.80733 | 4023 ft | 239 kts | 173° |
| 2026-04-18 10:16 | 47.85964 | 16.80389 | 3998 ft | 238 kts | 208° |
| 2026-04-18 10:16 | 47.84746 | 16.78886 | 3984 ft | 219 kts | 242° |
| 2026-04-18 10:16 | 47.84157 | 16.76842 | 3987 ft | 218 kts | 255° |
| 2026-04-18 10:16 | 47.83713 | 16.74745 | 3985 ft | 212 kts | 266° |
| 2026-04-18 10:17 | 47.83908 | 16.72647 | 3997 ft | 208 kts | 302° |
| 2026-04-18 10:17 | 47.84747 | 16.70991 | 3988 ft | 192 kts | 315° |
| 2026-04-18 10:17 | 47.85621 | 16.69629 | 3993 ft | 174 kts | 324° |
| 2026-04-18 10:17 | 47.86659 | 16.68669 | 3960 ft | 177 kts | 336° |
| 2026-04-18 10:18 | 47.87794 | 16.68027 | 3848 ft | 173 kts | 343° |
| 2026-04-18 10:18 | 47.88955 | 16.67517 | 3684 ft | 175 kts | 345° |
| 2026-04-18 10:18 | 47.90140 | 16.67019 | 3350 ft | 177 kts | 346° |
| 2026-04-18 10:18 | 47.91305 | 16.66533 | 3137 ft | 172 kts | 345° |
| 2026-04-18 10:19 | 47.92423 | 16.66059 | 2996 ft | 161 kts | 345° |
| 2026-04-18 10:19 | 47.93540 | 16.65590 | 2997 ft | 169 kts | 345° |
| 2026-04-18 10:19 | 47.94640 | 16.65125 | 2999 ft | 166 kts | 345° |
| 2026-04-18 10:19 | 47.95759 | 16.64654 | 3001 ft | 165 kts | 346° |
| 2026-04-18 10:20 | 47.96840 | 16.64201 | 2997 ft | 162 kts | 346° |
| 2026-04-18 10:20 | 47.97959 | 16.63732 | 2891 ft | 169 kts | 346° |
| 2026-04-18 10:20 | 47.99067 | 16.63264 | 2633 ft | 160 kts | 345° |
| 2026-04-18 10:20 | 48.00097 | 16.62831 | 2415 ft | 148 kts | 345° |
| 2026-04-18 10:21 | 48.01045 | 16.62430 | 2222 ft | 136 kts | 345° |
| 2026-04-18 10:21 | 48.01902 | 16.62069 | 2048 ft | 125 kts | 346° |
| 2026-04-18 10:21 | 48.02718 | 16.61725 | 1892 ft | 122 kts | 346° |
| 2026-04-18 10:21 | 48.03549 | 16.61375 | 1716 ft | 125 kts | 346° |
| 2026-04-18 10:22 | 48.04391 | 16.61016 | 1529 ft | 126 kts | 346° |
| 2026-04-18 10:22 | 48.05228 | 16.60673 | 1365 ft | 123 kts | 346° |
| 2026-04-18 10:22 | 48.06049 | 16.60313 | 1174 ft | 125 kts | 345° |
| 2026-04-18 10:22 | 48.06895 | 16.59962 | 1016 ft | 123 kts | 345° |
| 2026-04-18 10:23 | 48.07710 | 16.59616 | 842 ft | 119 kts | 345° |
| 2026-04-18 10:23 | 48.08518 | 16.59273 | 694 ft | 124 kts | 345° |
| 2026-04-18 10:23 | 48.09355 | 16.58916 | 621 ft | 121 kts | 345° |
| 2026-04-18 10:23 | 48.10054 | 16.58629 | 617 ft | 84 kts | 345° |
| 2026-04-18 10:24 | 48.10570 | 16.58401 | 613 ft | 72 kts | 343° |
| 2026-04-18 10:24 | 48.11038 | 16.58214 | 620 ft | 67 kts | 341° |
| 2026-04-18 10:24 | 48.11404 | 16.58058 | 619 ft | 47 kts | 346° |
| 2026-04-18 10:24 | 48.11675 | 16.57946 | 620 ft | 33 kts | 340° |
| 2026-04-18 10:25 | 48.11829 | 16.57839 | 613 ft | 21 kts | 308° |
| 2026-04-18 10:25 | 48.11857 | 16.57674 | 609 ft | 10 kts | 263° |